Cleveland, Ohio
Traffic Map
Current Weather Conditions
Cleveland, Ohio
Overcast
Overcast
56°
Feels Like: 56°
Wind Chill: 56° Ceiling: 7500
Heat Index: 56° Visibility: 10mi
Dew Point: 47° Wind: 8mph
Humidity: 72% Direction: 330° (NNW)
Pressure: 29.6in Gusts: 0mph
Raw Report DataKBKL 041853Z 33007KT 10SM OVC075 13/08 A2960 RMK AO2 WSHFT 1802 SLP025 T01330083
Traffic Incident Summary
Active as of:
Severity:
Category:
InformationThere was an issue retrieving the traffic information for this location. Please try a different location or try again shortly.
Advertisements
Track Severe Weather on mobile